Molokai Airport Kaunakakai US
ICAO: PHMK
IATA:
Category: Medium
Scheduled Services:

Elevation: 454 ft
TransAlt. 18000 ft.

Airport Communications:
ATIS:128.2
HONOLULU CNTR:124.1
CTAF:125.7
GND:121.9
HONOLULU RDO:116.1
TWR:125.7

PHMK Zoom In..

If you have problems with the map follow the link
https://www.worldairports.se/pages/airport.php?
ICAO=PHMK

Runways:

(A) RW 05 length 4494 ft width 100 ft
---- / hdg 49

(B) RW 17 length 3118 ft width 100 ft
---- / hdg 169

(C) RW 23 length 4494 ft width 100 ft
---- / hdg 229

(D) RW 35 length 3118 ft width 100 ft
---- / hdg 349

Location; PHMK
Day. 29 / Time. 15.54 Zulu
* Altimeter: 30.07
* Temperature: 19° c. 66.2°f.
* Wind from: 300° Speed 04 kn.
Dewpoint: 17° c.
Visibility: 10 Statute Miles.
Clouds: Overcast 4800 ft.

PHMK 291554Z AUTO 30004KT 10SM OVC048 19/17 A3007 RMK AO2 SLP184 T01940172 TSNO


Wind From 300°
Speed 04 kn.

 
 
jpsmedia worldairports.se 2020   terms of use